createdAt,value
2017-09-03T00:02:22.471Z,19.72
2017-09-03T00:04:50.462Z,19.73
2017-09-03T00:07:17.601Z,19.74
2017-09-03T00:09:44.745Z,19.72
2017-09-03T00:12:11.886Z,19.73
2017-09-03T00:14:39.531Z,19.72
2017-09-03T00:17:06.701Z,19.73
2017-09-03T00:19:34.292Z,19.74
2017-09-03T00:22:01.430Z,19.73
2017-09-03T00:24:28.612Z,19.73
2017-09-03T00:26:55.752Z,19.73
2017-09-03T00:29:22.885Z,19.73
2017-09-03T00:31:50.034Z,19.73
2017-09-03T00:34:17.170Z,19.73
2017-09-03T00:36:44.308Z,19.73
2017-09-03T00:39:11.455Z,19.72
2017-09-03T00:41:38.610Z,19.73
2017-09-03T00:44:05.772Z,19.73
2017-09-03T00:46:32.920Z,19.72
2017-09-03T00:49:00.837Z,19.73
2017-09-03T00:51:27.983Z,19.72
2017-09-03T00:53:55.760Z,19.72
2017-09-03T00:56:22.941Z,19.73
2017-09-03T00:58:51.733Z,19.73
2017-09-03T01:01:22.163Z,19.73
2017-09-03T01:03:51.831Z,19.72
2017-09-03T01:06:21.612Z,19.73
2017-09-03T01:08:50.307Z,19.72
2017-09-03T01:11:17.588Z,19.72
2017-09-03T01:13:44.730Z,19.72
2017-09-03T01:16:11.869Z,19.72
2017-09-03T01:18:39.028Z,19.72
2017-09-03T01:21:06.169Z,19.72
2017-09-03T01:23:33.324Z,19.72
2017-09-03T01:26:00.473Z,19.73
2017-09-03T01:28:27.632Z,19.72
2017-09-03T01:30:55.546Z,19.73
2017-09-03T01:33:22.707Z,19.72
2017-09-03T01:35:49.863Z,19.73
2017-09-03T01:38:17.013Z,19.74
2017-09-03T01:40:44.157Z,19.74
2017-09-03T01:43:11.318Z,19.75
2017-09-03T01:45:38.480Z,19.76
2017-09-03T01:48:05.625Z,19.76
2017-09-03T01:50:32.765Z,19.75
2017-09-03T01:52:59.953Z,19.76
2017-09-03T01:55:27.101Z,19.75
2017-09-03T01:57:54.241Z,19.74
2017-09-03T02:00:21.385Z,19.74
2017-09-03T02:02:48.525Z,19.74
2017-09-03T02:05:15.670Z,19.74
2017-09-03T02:07:42.832Z,19.74
2017-09-03T02:10:09.976Z,19.73
2017-09-03T02:12:37.122Z,19.73
2017-09-03T02:15:04.265Z,19.73
2017-09-03T02:17:31.432Z,19.73
2017-09-03T02:19:58.586Z,19.72
2017-09-03T02:22:25.734Z,19.73
2017-09-03T02:24:52.891Z,19.73
2017-09-03T02:27:20.055Z,19.73
2017-09-03T02:29:47.207Z,19.72
2017-09-03T02:32:14.349Z,19.73
2017-09-03T02:34:41.489Z,19.72
2017-09-03T02:37:08.638Z,19.72
2017-09-03T02:39:35.777Z,19.72
2017-09-03T02:42:02.922Z,19.72
2017-09-03T02:44:30.070Z,19.72
2017-09-03T02:46:57.210Z,19.72
2017-09-03T02:49:24.527Z,19.71
2017-09-03T02:51:51.684Z,19.71
2017-09-03T02:54:18.883Z,19.71
2017-09-03T02:56:46.022Z,19.72
2017-09-03T02:59:13.188Z,19.71
2017-09-03T03:01:40.348Z,19.71
2017-09-03T03:04:07.520Z,19.71
2017-09-03T03:06:34.695Z,19.71
2017-09-03T03:09:03.415Z,19.71
2017-09-03T03:11:30.673Z,19.70
2017-09-03T03:13:57.836Z,19.70
2017-09-03T03:16:24.978Z,19.71
2017-09-03T03:18:52.122Z,19.70
2017-09-03T03:21:19.280Z,19.71
2017-09-03T03:23:46.429Z,19.70
2017-09-03T03:26:13.584Z,19.70
2017-09-03T03:28:40.726Z,19.70
2017-09-03T03:31:07.867Z,19.69
2017-09-03T03:33:35.024Z,19.70
2017-09-03T03:36:02.169Z,19.70
2017-09-03T03:38:29.329Z,19.70
2017-09-03T03:40:56.483Z,19.69
2017-09-03T03:43:23.640Z,19.69
2017-09-03T03:45:50.800Z,19.69
2017-09-03T03:48:17.937Z,19.70
2017-09-03T03:50:45.086Z,19.70
2017-09-03T03:53:12.240Z,19.70
2017-09-03T03:55:39.404Z,19.70
2017-09-03T03:58:07.318Z,19.70
2017-09-03T04:00:34.481Z,19.69
2017-09-03T04:03:01.635Z,19.69
2017-09-03T04:05:28.787Z,19.68
2017-09-03T04:07:55.925Z,19.69
2017-09-03T04:10:23.080Z,19.69
2017-09-03T04:12:50.241Z,19.69
2017-09-03T04:15:17.380Z,19.68
2017-09-03T04:17:44.538Z,19.68
2017-09-03T04:20:11.677Z,19.68
2017-09-03T04:22:38.839Z,19.68
2017-09-03T04:25:05.995Z,19.68
2017-09-03T04:27:33.137Z,19.68
2017-09-03T04:30:00.273Z,19.68
2017-09-03T04:32:27.438Z,19.68
2017-09-03T04:34:54.611Z,19.68
2017-09-03T04:37:21.762Z,19.68
2017-09-03T04:39:48.904Z,19.67
2017-09-03T04:42:16.059Z,19.68
2017-09-03T04:44:43.197Z,19.68
2017-09-03T04:47:10.337Z,19.68
2017-09-03T04:49:37.481Z,19.68
2017-09-03T04:52:04.635Z,19.67
2017-09-03T04:54:31.786Z,19.68
2017-09-03T04:56:58.948Z,19.67
2017-09-03T04:59:26.089Z,19.67
2017-09-03T05:01:53.229Z,19.67
2017-09-03T05:04:20.393Z,19.67
2017-09-03T05:06:47.546Z,19.67
2017-09-03T05:09:14.690Z,19.67
2017-09-03T05:11:41.859Z,19.68
2017-09-03T05:14:09.003Z,19.67
2017-09-03T05:16:36.145Z,19.67
2017-09-03T05:19:03.285Z,19.67
2017-09-03T05:21:30.444Z,19.67
2017-09-03T05:23:57.584Z,19.66
2017-09-03T05:26:24.745Z,19.66
2017-09-03T05:28:51.905Z,19.67
2017-09-03T05:31:19.068Z,19.66
2017-09-03T05:33:46.209Z,19.66
2017-09-03T05:36:13.361Z,19.66
2017-09-03T05:38:40.529Z,19.66
2017-09-03T05:41:07.677Z,19.66
2017-09-03T05:43:34.836Z,19.66
2017-09-03T05:46:01.976Z,19.66
2017-09-03T05:48:29.125Z,19.66
2017-09-03T05:50:56.269Z,19.66
2017-09-03T05:53:23.428Z,19.66
2017-09-03T05:55:50.588Z,19.66
2017-09-03T05:58:17.748Z,19.66
2017-09-03T06:00:44.924Z,19.66
2017-09-03T06:03:12.064Z,19.66
2017-09-03T06:05:39.228Z,19.66
2017-09-03T06:08:06.382Z,19.66
2017-09-03T06:10:33.534Z,19.66
2017-09-03T06:13:00.692Z,19.66
2017-09-03T06:15:27.837Z,19.66
2017-09-03T06:17:54.977Z,19.65
2017-09-03T06:20:22.132Z,19.66
2017-09-03T06:22:49.277Z,19.66
2017-09-03T06:25:16.426Z,19.66
2017-09-03T06:27:43.584Z,19.66
2017-09-03T06:30:10.753Z,19.66
2017-09-03T06:32:37.916Z,19.66
2017-09-03T06:35:05.071Z,19.66
2017-09-03T06:37:32.209Z,19.67
2017-09-03T06:39:59.353Z,19.66
2017-09-03T06:42:26.494Z,19.67
2017-09-03T06:44:53.653Z,19.66
2017-09-03T06:47:20.808Z,19.66
2017-09-03T06:49:47.955Z,19.67
2017-09-03T06:52:15.129Z,19.66
2017-09-03T06:54:43.051Z,19.66
2017-09-03T06:57:10.211Z,19.66
2017-09-03T06:59:37.368Z,19.66
2017-09-03T07:02:04.518Z,19.66
2017-09-03T07:04:31.684Z,19.66
2017-09-03T07:06:58.830Z,19.66
2017-09-03T07:09:25.982Z,19.65
2017-09-03T07:11:53.148Z,19.66
2017-09-03T07:14:20.316Z,19.65
2017-09-03T07:16:47.454Z,19.64
2017-09-03T07:19:14.601Z,19.63
2017-09-03T07:21:41.745Z,19.63
2017-09-03T07:24:08.898Z,19.62
2017-09-03T07:26:36.056Z,19.60
2017-09-03T07:29:03.209Z,19.59
2017-09-03T07:31:30.358Z,19.60
2017-09-03T07:33:57.506Z,19.60
2017-09-03T07:36:24.670Z,19.60
2017-09-03T07:38:51.825Z,19.59
2017-09-03T07:41:18.971Z,19.59
2017-09-03T07:43:46.109Z,19.59
2017-09-03T07:46:13.360Z,19.59
2017-09-03T07:48:41.281Z,19.57
2017-09-03T07:51:08.436Z,19.58
2017-09-03T07:53:35.597Z,19.59
2017-09-03T07:56:02.752Z,19.58
2017-09-03T07:58:29.911Z,19.58
2017-09-03T08:00:57.054Z,19.57
2017-09-03T08:03:24.202Z,19.57
2017-09-03T08:05:51.369Z,19.58
2017-09-03T08:08:18.650Z,19.58
2017-09-03T08:10:45.802Z,19.59
2017-09-03T08:13:12.954Z,19.58
2017-09-03T08:15:40.098Z,19.58
2017-09-03T08:18:07.233Z,19.58
2017-09-03T08:20:35.137Z,19.58
2017-09-03T08:23:02.295Z,19.57
2017-09-03T08:25:29.433Z,19.58
2017-09-03T08:27:56.591Z,19.58
2017-09-03T08:30:23.746Z,19.58
2017-09-03T08:32:50.894Z,19.58
2017-09-03T08:35:18.060Z,19.57
2017-09-03T08:37:45.218Z,19.57
2017-09-03T08:40:12.374Z,19.57
2017-09-03T08:42:39.552Z,19.58
2017-09-03T08:45:06.713Z,19.58
2017-09-03T08:47:33.871Z,19.57
2017-09-03T08:50:01.015Z,19.58
2017-09-03T08:52:28.172Z,19.57
2017-09-03T08:54:55.317Z,19.58
2017-09-03T08:57:22.471Z,19.58
2017-09-03T08:59:49.633Z,19.58
2017-09-03T09:02:16.777Z,19.57
2017-09-03T09:04:43.926Z,19.57
2017-09-03T09:07:11.065Z,19.58
2017-09-03T09:09:38.217Z,19.58
2017-09-03T09:12:05.375Z,19.57
2017-09-03T09:14:32.537Z,19.57
2017-09-03T09:16:59.699Z,19.58
2017-09-03T09:19:26.873Z,19.58
2017-09-03T09:21:54.046Z,19.58
2017-09-03T09:24:21.996Z,19.57
2017-09-03T09:26:49.170Z,19.57
2017-09-03T09:29:16.349Z,19.58
2017-09-03T09:31:43.529Z,19.59
2017-09-03T09:34:10.674Z,19.59
2017-09-03T09:36:37.835Z,19.59
2017-09-03T09:39:05.004Z,19.59
2017-09-03T09:41:32.167Z,19.58
2017-09-03T09:43:59.314Z,19.58
2017-09-03T09:46:26.478Z,19.58
2017-09-03T09:48:53.644Z,19.57
2017-09-03T09:51:20.818Z,19.58
2017-09-03T09:53:47.986Z,19.58
2017-09-03T09:56:15.200Z,19.57
2017-09-03T09:58:42.392Z,19.57
2017-09-03T10:01:09.534Z,19.57
2017-09-03T10:03:36.687Z,19.58
2017-09-03T10:06:03.829Z,19.58
2017-09-03T10:08:30.980Z,19.57
2017-09-03T10:10:58.143Z,19.58
2017-09-03T10:13:25.285Z,19.57
2017-09-03T10:15:52.443Z,19.58
2017-09-03T10:18:19.595Z,19.57
2017-09-03T10:20:46.740Z,19.59
2017-09-03T10:23:13.877Z,19.58
2017-09-03T10:25:41.018Z,19.58
2017-09-03T10:28:08.161Z,19.58
2017-09-03T10:30:35.309Z,19.58
2017-09-03T10:33:02.449Z,19.58
2017-09-03T10:35:29.605Z,19.59
2017-09-03T10:37:56.745Z,19.59
2017-09-03T10:40:23.890Z,19.59
2017-09-03T10:42:51.056Z,19.59
2017-09-03T10:45:18.236Z,19.58
2017-09-03T10:47:45.395Z,19.59
2017-09-03T10:50:12.552Z,19.58
2017-09-03T10:52:39.706Z,19.58
2017-09-03T10:55:06.868Z,19.58
2017-09-03T10:57:34.018Z,19.58
2017-09-03T11:00:01.161Z,19.57
2017-09-03T11:02:28.297Z,19.58
2017-09-03T11:04:55.455Z,19.58
2017-09-03T11:07:22.599Z,19.58
2017-09-03T11:09:49.762Z,19.58
2017-09-03T11:12:17.049Z,19.56
2017-09-03T11:14:44.195Z,19.58
2017-09-03T11:17:11.356Z,19.57
2017-09-03T11:19:38.499Z,19.58
2017-09-03T11:22:05.640Z,19.57
2017-09-03T11:24:32.777Z,19.56
2017-09-03T11:26:59.942Z,19.56
2017-09-03T11:29:27.084Z,19.56
2017-09-03T11:31:54.229Z,19.56
2017-09-03T11:34:22.165Z,19.56
2017-09-03T11:36:49.306Z,19.57
2017-09-03T11:39:16.450Z,19.57
2017-09-03T11:41:43.594Z,19.56
2017-09-03T11:44:10.752Z,19.57
2017-09-03T11:46:37.908Z,19.57
2017-09-03T11:49:05.054Z,19.58
2017-09-03T11:51:32.213Z,19.58
2017-09-03T11:53:59.401Z,19.58
2017-09-03T11:56:26.537Z,19.58
2017-09-03T11:58:53.682Z,19.58
2017-09-03T12:01:20.830Z,19.57
2017-09-03T12:03:47.974Z,19.58
2017-09-03T12:06:15.113Z,19.58
2017-09-03T12:08:42.399Z,19.59
2017-09-03T12:11:09.546Z,19.59
2017-09-03T12:13:36.711Z,19.58
2017-09-03T12:16:03.872Z,19.58
2017-09-03T12:18:31.041Z,19.58
2017-09-03T12:20:58.200Z,19.59
2017-09-03T12:23:25.342Z,19.59
2017-09-03T12:25:52.531Z,19.58
2017-09-03T12:28:20.456Z,19.59
2017-09-03T12:30:47.598Z,19.59
2017-09-03T12:33:14.754Z,19.59
2017-09-03T12:35:41.918Z,19.59
2017-09-03T12:38:09.124Z,19.59
2017-09-03T12:40:36.285Z,19.59
2017-09-03T12:43:03.448Z,19.59
2017-09-03T12:45:30.589Z,19.59
2017-09-03T12:47:57.736Z,19.58
2017-09-03T12:50:24.898Z,19.58
2017-09-03T12:52:52.080Z,19.58
2017-09-03T12:55:19.222Z,19.57
2017-09-03T12:57:46.366Z,19.58
2017-09-03T13:00:13.532Z,19.57
2017-09-03T13:02:40.693Z,19.57
2017-09-03T13:05:07.835Z,19.57
2017-09-03T13:07:34.996Z,19.57
2017-09-03T13:10:02.138Z,19.57
2017-09-03T13:12:29.285Z,19.57
2017-09-03T13:14:56.446Z,19.57
2017-09-03T13:17:23.593Z,19.57
2017-09-03T13:19:50.761Z,19.57
2017-09-03T13:22:17.909Z,19.57
2017-09-03T13:24:45.101Z,19.57
2017-09-03T13:27:12.320Z,19.57
2017-09-03T13:29:39.484Z,19.57
2017-09-03T13:32:06.629Z,19.57
2017-09-03T13:34:33.769Z,19.56
2017-09-03T13:37:00.909Z,19.57
2017-09-03T13:39:28.049Z,19.56
2017-09-03T13:41:55.207Z,19.56
2017-09-03T13:44:22.361Z,19.57
2017-09-03T13:46:49.502Z,19.56
2017-09-03T13:49:16.680Z,19.56
2017-09-03T13:51:43.840Z,19.56
2017-09-03T13:54:10.987Z,19.56
2017-09-03T13:56:38.156Z,19.56
2017-09-03T13:59:05.297Z,19.56
2017-09-03T14:01:32.460Z,19.57
2017-09-03T14:03:59.601Z,19.57
2017-09-03T14:06:26.742Z,19.57
2017-09-03T14:08:53.996Z,19.57
2017-09-03T14:11:21.145Z,19.57
2017-09-03T14:13:48.290Z,19.56
2017-09-03T14:16:15.428Z,19.56
2017-09-03T14:18:42.570Z,19.57
2017-09-03T14:21:09.710Z,19.57
2017-09-03T14:23:36.854Z,19.56
2017-09-03T14:26:04.023Z,19.57
2017-09-03T14:28:31.934Z,19.56
2017-09-03T14:30:59.097Z,19.56
2017-09-03T14:33:26.234Z,19.56
2017-09-03T14:35:53.391Z,19.56
2017-09-03T14:38:20.550Z,19.56
2017-09-03T14:40:47.709Z,19.56
2017-09-03T14:43:14.857Z,19.56
2017-09-03T14:45:42.024Z,19.57
2017-09-03T14:48:09.184Z,19.57
2017-09-03T14:50:36.453Z,19.57
2017-09-03T14:53:03.598Z,19.56
2017-09-03T14:55:30.754Z,19.57
2017-09-03T14:57:57.906Z,19.57
2017-09-03T15:00:25.054Z,19.57
2017-09-03T15:02:52.198Z,19.57
2017-09-03T15:05:20.114Z,19.56
2017-09-03T15:07:47.253Z,19.56
2017-09-03T15:10:14.417Z,19.57
2017-09-03T15:12:41.562Z,19.56
2017-09-03T15:15:08.731Z,19.57
2017-09-03T15:17:35.887Z,19.56
2017-09-03T15:20:03.042Z,19.57
2017-09-03T15:22:30.210Z,19.56
2017-09-03T15:24:57.372Z,19.57
2017-09-03T15:27:24.518Z,19.57
2017-09-03T15:29:51.657Z,19.56
2017-09-03T15:32:18.802Z,19.57
2017-09-03T15:34:45.961Z,19.57
2017-09-03T15:37:13.131Z,19.57
2017-09-03T15:39:40.283Z,19.57
2017-09-03T15:42:07.424Z,19.56
2017-09-03T15:44:34.562Z,19.57
2017-09-03T15:47:01.724Z,19.57
2017-09-03T15:49:28.865Z,19.56
2017-09-03T15:51:56.019Z,19.56
2017-09-03T15:54:23.185Z,19.57
2017-09-03T15:56:50.369Z,19.57
2017-09-03T15:59:17.546Z,19.56
2017-09-03T16:01:44.688Z,19.56
2017-09-03T16:04:11.848Z,19.57
2017-09-03T16:06:39.008Z,19.55
2017-09-03T16:09:06.165Z,19.56
2017-09-03T16:11:33.321Z,19.56
2017-09-03T16:14:01.243Z,19.56
2017-09-03T16:16:28.417Z,19.56
2017-09-03T16:18:55.572Z,19.56
2017-09-03T16:21:22.722Z,19.56
2017-09-03T16:23:49.885Z,19.56
2017-09-03T16:26:17.030Z,19.55
2017-09-03T16:28:44.193Z,19.56
2017-09-03T16:31:11.769Z,19.55
2017-09-03T16:33:38.914Z,19.55
2017-09-03T16:36:06.088Z,19.55
2017-09-03T16:38:33.238Z,19.55
2017-09-03T16:41:00.382Z,19.55
2017-09-03T16:43:27.544Z,19.55
2017-09-03T16:45:54.749Z,19.54
2017-09-03T16:48:21.945Z,19.55
2017-09-03T16:50:49.109Z,19.54
2017-09-03T16:53:16.285Z,19.55
2017-09-03T16:55:43.441Z,19.55
2017-09-03T16:58:10.650Z,19.54
2017-09-03T17:00:37.839Z,19.55
2017-09-03T17:03:05.021Z,19.55
2017-09-03T17:05:32.205Z,19.55
2017-09-03T17:07:59.425Z,19.55
2017-09-03T17:10:26.608Z,19.55
2017-09-03T17:12:53.778Z,19.55
2017-09-03T17:15:20.938Z,19.54
2017-09-03T17:17:48.138Z,19.55
2017-09-03T17:20:15.364Z,19.54
2017-09-03T17:22:43.949Z,19.55
2017-09-03T17:25:11.117Z,19.53
2017-09-03T17:27:38.676Z,19.54
2017-09-03T17:30:05.850Z,19.54
2017-09-03T17:32:33.029Z,19.53
2017-09-03T17:35:02.876Z,19.53
2017-09-03T17:37:30.351Z,19.53
2017-09-03T17:39:58.217Z,19.54
2017-09-03T17:42:25.391Z,19.53
2017-09-03T17:44:52.574Z,19.54
2017-09-03T17:47:19.863Z,19.53
2017-09-03T17:49:48.474Z,19.53
2017-09-03T17:52:17.667Z,19.53
2017-09-03T17:54:45.315Z,19.53
2017-09-03T17:57:13.064Z,19.52
2017-09-03T17:59:40.712Z,19.52
2017-09-03T18:02:08.213Z,19.53
2017-09-03T18:04:39.447Z,19.52
2017-09-03T18:07:07.206Z,19.52
2017-09-03T18:09:34.473Z,19.52
2017-09-03T18:12:02.120Z,19.52
2017-09-03T18:14:29.467Z,19.52
2017-09-03T18:16:56.638Z,19.51
2017-09-03T18:19:23.800Z,19.50
2017-09-03T18:21:51.449Z,19.51
2017-09-03T18:24:20.328Z,19.52
2017-09-03T18:26:47.787Z,19.51
2017-09-03T18:29:17.124Z,19.51
2017-09-03T18:32:00.295Z,19.51
2017-09-03T18:34:28.642Z,19.51
2017-09-03T18:37:02.678Z,19.50
2017-09-03T18:39:37.330Z,19.51
2017-09-03T18:42:05.631Z,19.52
2017-09-03T18:44:33.458Z,19.51
2017-09-03T18:47:02.230Z,19.51
2017-09-03T18:49:36.315Z,19.51
2017-09-03T18:52:21.394Z,19.50
2017-09-03T18:54:50.113Z,19.50
2017-09-03T18:57:19.906Z,19.49
2017-09-03T18:59:52.525Z,19.50
2017-09-03T19:02:21.643Z,19.49
2017-09-03T19:04:55.404Z,19.49
2017-09-03T19:07:24.251Z,19.51
2017-09-03T19:09:52.539Z,19.49
2017-09-03T19:12:21.685Z,19.50
2017-09-03T19:14:50.167Z,19.50
2017-09-03T19:17:19.207Z,19.50
2017-09-03T19:19:47.877Z,19.51
2017-09-03T19:22:16.598Z,19.51
2017-09-03T19:24:45.137Z,19.51
2017-09-03T19:27:14.025Z,19.51
2017-09-03T19:29:42.881Z,19.52
2017-09-03T19:32:11.766Z,19.51
2017-09-03T19:34:39.698Z,19.51
2017-09-03T19:37:09.597Z,19.51
2017-09-03T19:39:38.979Z,19.51
2017-09-03T19:42:07.895Z,19.51
2017-09-03T19:44:36.077Z,19.51
2017-09-03T19:47:06.185Z,19.51
2017-09-03T19:49:35.646Z,19.51
2017-09-03T19:52:04.734Z,19.51
2017-09-03T19:54:33.045Z,19.51
2017-09-03T19:57:01.679Z,19.51
2017-09-03T19:59:30.341Z,19.52
2017-09-03T20:01:58.583Z,19.51
2017-09-03T20:04:26.005Z,19.52
2017-09-03T20:06:53.797Z,19.51
2017-09-03T20:09:22.212Z,19.52
2017-09-03T20:11:49.907Z,19.51
2017-09-03T20:14:17.753Z,19.51
2017-09-03T20:16:45.361Z,19.51
2017-09-03T20:19:12.540Z,19.51
2017-09-03T20:21:41.089Z,19.51
2017-09-03T20:24:09.456Z,19.51
2017-09-03T20:26:38.045Z,19.50
2017-09-03T20:29:05.931Z,19.50
2017-09-03T20:31:33.698Z,19.50
2017-09-03T20:34:00.857Z,19.50
2017-09-03T20:36:28.012Z,19.51
2017-09-03T20:38:55.212Z,19.51
2017-09-03T20:41:22.583Z,19.50
2017-09-03T20:43:50.208Z,19.50
2017-09-03T20:46:17.344Z,19.50
2017-09-03T20:48:44.507Z,19.51
2017-09-03T20:51:11.654Z,19.50
2017-09-03T20:53:38.818Z,19.51
2017-09-03T20:56:05.989Z,19.50
2017-09-03T20:58:33.152Z,19.50
2017-09-03T21:01:00.442Z,19.50
2017-09-03T21:03:27.624Z,19.50
2017-09-03T21:05:54.798Z,19.50
2017-09-03T21:08:21.983Z,19.50
2017-09-03T21:10:49.179Z,19.50
2017-09-03T21:13:16.317Z,19.49
2017-09-03T21:15:43.480Z,19.50
2017-09-03T21:18:10.621Z,19.50
2017-09-03T21:20:37.764Z,19.50
2017-09-03T21:23:05.381Z,19.50
2017-09-03T21:25:32.520Z,19.50
2017-09-03T21:28:00.285Z,19.50
2017-09-03T21:30:27.937Z,19.49
2017-09-03T21:32:55.103Z,19.49
2017-09-03T21:35:23.220Z,19.50
2017-09-03T21:37:51.584Z,19.49
2017-09-03T21:40:20.084Z,19.50
2017-09-03T21:42:47.279Z,19.49
2017-09-03T21:45:14.841Z,19.49
2017-09-03T21:47:44.604Z,19.49
2017-09-03T21:50:12.178Z,19.49
2017-09-03T21:52:39.693Z,19.50
2017-09-03T21:55:07.314Z,19.49
2017-09-03T21:57:35.546Z,19.49
2017-09-03T22:00:05.220Z,19.49
2017-09-03T22:02:33.418Z,19.49
2017-09-03T22:05:00.850Z,19.49
2017-09-03T22:07:28.423Z,19.50
2017-09-03T22:09:59.053Z,19.49
2017-09-03T22:12:26.328Z,19.49
2017-09-03T22:14:53.486Z,19.49
2017-09-03T22:17:20.651Z,19.49
2017-09-03T22:19:47.817Z,19.49
2017-09-03T22:22:14.962Z,19.48
2017-09-03T22:24:42.109Z,19.48
2017-09-03T22:27:09.263Z,19.48
2017-09-03T22:29:36.405Z,19.49
2017-09-03T22:32:03.559Z,19.48
2017-09-03T22:34:30.724Z,19.48
2017-09-03T22:36:57.861Z,19.48
2017-09-03T22:39:25.020Z,19.49
2017-09-03T22:41:52.195Z,19.49
2017-09-03T22:44:19.352Z,19.49
2017-09-03T22:46:46.493Z,19.48
2017-09-03T22:49:13.634Z,19.48
2017-09-03T22:51:40.796Z,19.49
2017-09-03T22:54:07.956Z,19.48
2017-09-03T22:56:35.120Z,19.48
2017-09-03T22:59:02.278Z,19.48
2017-09-03T23:01:29.487Z,19.47
2017-09-03T23:03:56.644Z,19.47
2017-09-03T23:06:23.805Z,19.47
2017-09-03T23:08:50.968Z,19.47
2017-09-03T23:11:18.112Z,19.47
2017-09-03T23:13:45.268Z,19.47
2017-09-03T23:16:12.437Z,19.48
2017-09-03T23:18:39.599Z,19.48
2017-09-03T23:21:06.737Z,19.48
2017-09-03T23:23:33.879Z,19.48
2017-09-03T23:26:01.022Z,19.48
2017-09-03T23:28:28.188Z,19.48
2017-09-03T23:30:55.325Z,19.48
2017-09-03T23:33:22.474Z,19.48
2017-09-03T23:35:49.631Z,19.48
2017-09-03T23:38:16.773Z,19.48
2017-09-03T23:40:43.913Z,19.48
2017-09-03T23:43:11.076Z,19.48
2017-09-03T23:45:38.226Z,19.48
2017-09-03T23:48:05.365Z,19.48
2017-09-03T23:50:32.528Z,19.47
2017-09-03T23:52:59.691Z,19.47
2017-09-03T23:55:26.853Z,19.47
2017-09-03T23:57:53.997Z,19.47
